Latest Weather Observations for Bunbury

IDW60801

Issued at 12:02 pm WST Saturday 25 April 2015 (issued every 30 minutes, with the page automatically refreshed every 10 minutes)

About weather observations | Map of weather stations | Latest weather observations for WA | Other Formats
Station Details ID: 009965 Name: BUNBURY Lat: -33.36 Lon: 115.64 Height: 5.2 m
Data from the previous 72 hours. | See also: Recent months at Bunbury
Date/Time
WST
Temp
°C
App
Temp
°C
Dew
Point
Rel
Hum
%
Delta-T
°C
Wind Press
QNH
hPa
Press
MSL
hPa
Rain
since 9 am
mm
Dir
 
Spd
km/h
Gust
km/h
Spd
kts
Gust
kts
25/12:00pm 19.6 16.3 8.0 47 5.9 ESE 15 22 8 12 1026.9 1026.8 0.0
25/11:30am 19.5 16.7 8.5 49 5.7 E 13 24 7 13 1027.4 1027.3 0.0
25/11:00am 18.7 15.5 8.4 51 5.3 E 15 20 8 11 1027.9 1027.8 0.0
25/10:30am 17.7 14.2 8.6 55 4.7 E 17 24 9 13 1028.3 1028.2 0.0
25/10:00am 17.0 13.5 8.9 59 4.1 ENE 17 26 9 14 1028.6 1028.5 0.0
25/09:30am 15.9 12.0 8.6 62 3.7 ENE 19 26 10 14 1028.9 1028.8 0.0
25/09:00am 15.2 11.8 9.1 67 3.1 E 17 26 9 14 1029.0 1028.9 0.0
25/08:30am 13.5 11.3 9.2 75 2.2 ESE 11 19 6 10 1029.0 1028.9 0.0
25/08:00am 11.9 9.5 8.6 80 1.6 ESE 11 15 6 8 1028.8 1028.7 0.0
25/07:30am 10.2 8.0 8.0 86 1.1 ESE 9 13 5 7 1028.4 1028.3 0.0
25/07:00am 9.7 7.5 7.8 88 0.9 SE 9 13 5 7 1028.1 1028.0 0.0
25/06:30am 8.8 6.4 7.1 89 0.8 SE 9 11 5 6 1027.9 1027.8 0.0
25/06:00am 9.3 7.5 7.1 86 1.0 SE 6 9 3 5 1027.8 1027.7 0.0
25/05:30am 10.0 8.2 7.8 86 1.1 SE 7 11 4 6 1027.6 1027.5 0.0
25/05:00am 10.4 8.2 7.8 84 1.2 SE 9 13 5 7 1027.5 1027.4 0.0
25/04:30am 11.1 8.6 8.0 81 1.5 SE 11 15 6 8 1027.3 1027.2 0.0
25/04:00am 11.0 9.1 7.7 80 1.6 SSE 7 9 4 5 1027.4 1027.3 0.0
25/03:30am 11.6 9.4 7.9 78 1.8 SE 9 13 5 7 1027.2 1027.1 0.0
25/03:00am 11.8 10.5 7.7 76 2.0 SE 4 6 2 3 1027.3 1027.2 0.0
25/02:30am 12.2 10.5 7.5 73 2.3 SE 6 7 3 4 1027.4 1027.3 0.0
25/02:00am 12.9 11.0 7.6 70 2.6 ESE 7 9 4 5 1027.4 1027.3 0.0
25/01:30am 13.2 11.3 7.6 69 2.7 ESE 7 11 4 6 1027.4 1027.3 0.0
25/01:00am 13.5 10.8 7.5 67 2.9 SE 11 17 6 9 1027.4 1027.3 0.0
25/12:30am 13.7 11.1 7.7 67 3.0 SE 11 15 6 8 1027.4 1027.3 0.0
25/12:00am 13.7 11.1 7.7 67 2.9 SE 11 17 6 9 1027.6 1027.5 0.0
 
Date/Time
WST
Temp
°C
App
Temp
°C
Dew
Point
Rel
Hum
%
Delta-T
°C
Wind Press
QNH
hPa
Press
MSL
hPa
Rain
since 9 am
mm
Dir
 
Spd
km/h
Gust
km/h
Spd
kts
Gust
kts
24/11:30pm 13.3 11.4 7.7 69 2.7 SE 7 11 4 6 1027.8 1027.7 0.0
24/11:00pm 13.6 11.3 7.6 67 2.9 SE 9 13 5 7 1027.9 1027.8 0.0
24/10:30pm 13.9 11.2 7.4 65 3.2 ESE 11 17 6 9 1028.2 1028.1 0.0
24/10:00pm 14.3 10.7 6.9 61 3.6 ESE 15 22 8 12 1028.2 1028.1 0.0
24/09:30pm 14.3 10.6 6.4 59 3.8 ESE 15 20 8 11 1028.1 1028.0 0.0
24/09:00pm 14.1 11.6 6.5 60 3.6 SE 9 15 5 8 1028.2 1028.1 0.0
24/08:30pm 14.1 11.6 6.5 60 3.7 SE 9 13 5 7 1028.0 1027.9 0.0
24/08:00pm 14.2 11.6 6.3 59 3.8 SE 9 13 5 7 1028.2 1028.1 0.0
24/07:30pm 14.8 11.9 6.4 57 4.0 ESE 11 15 6 8 1028.4 1028.3 0.0
24/07:00pm 15.0 11.7 6.3 56 4.2 ESE 13 20 7 11 1027.9 1027.8 0.0
24/06:30pm 15.4 11.7 6.4 55 4.4 SE 15 26 8 14 1027.5 1027.4 0.0
24/06:00pm 16.2 11.6 6.3 52 4.8 ESE 20 28 11 15 1027.5 1027.4 0.0
24/05:30pm 16.2 13.3 6.6 53 4.7 SE 11 17 6 9 1027.3 1027.2 0.0
24/05:00pm 16.9 13.7 6.7 51 5.0 SE 13 20 7 11 1027.3 1027.2 0.0
24/04:30pm 18.2 15.0 6.7 47 5.7 ESE 13 22 7 12 1027.1 1027.0 0.0
24/04:00pm 17.6 13.6 6.5 48 5.4 SE 17 28 9 15 1027.2 1027.1 0.0
24/03:30pm 18.3 13.6 6.2 45 6.0 ESE 20 30 11 16 1027.2 1027.1 0.0
24/03:00pm 18.1 13.5 6.3 46 5.8 ESE 20 30 11 16 1027.4 1027.3 0.0
24/02:30pm 19.1 14.3 7.2 46 6.0 SE 22 33 12 18 1027.2 1027.1 0.0
24/02:00pm 19.0 14.5 6.8 45 6.1 SE 20 30 11 16 1027.4 1027.3 0.0
24/01:30pm 17.6 12.5 6.2 47 5.6 ESE 22 32 12 17 1027.8 1027.7 0.0
24/01:00pm 17.3 12.6 6.2 48 5.4 ESE 20 28 11 15 1028.2 1028.1 0.0
24/12:30pm 17.5 12.4 6.1 47 5.6 E 22 32 12 17 1028.7 1028.6 0.0
24/12:00pm 17.3 12.6 5.9 47 5.5 E 20 33 11 18 1029.3 1029.2 0.0
24/11:30am 16.8 12.2 6.3 50 5.1 ESE 20 28 11 15 1029.8 1029.7 0.0
24/11:00am 17.2 13.2 6.7 50 5.2 E 17 26 9 14 1030.3 1030.2 0.0
24/10:30am 15.9 11.2 6.1 52 4.7 E 20 30 11 16 1030.4 1030.3 0.0
24/10:00am 15.9 11.3 6.6 54 4.5 ESE 20 30 11 16 1030.5 1030.4 0.0
24/09:30am 14.9 10.4 6.0 55 4.3 E 19 28 10 15 1030.7 1030.6 0.0
24/09:00am 13.2 10.6 6.1 62 3.3 S 9 15 5 8 1030.7 1030.6 0.0
24/08:30am 12.3 10.1 6.1 66 2.9 SSW 7 13 4 7 1030.7 1030.6 0.0
24/08:00am 10.1 7.9 6.1 76 1.8 SSW 7 9 4 5 1030.8 1030.7 0.0
24/07:30am 7.9 5.5 5.2 83 1.2 S 7 9 4 5 1030.6 1030.5 0.0
24/07:00am 5.5 2.9 3.2 85 0.9 SSE 6 7 3 4 1030.2 1030.1 0.0
24/06:30am 6.2 3.7 3.9 85 1.0 S 6 7 3 4 1029.5 1029.4 0.0
24/06:00am 8.0 6.0 4.2 77 1.6 SSE 4 6 2 3 1029.2 1029.1 0.0
24/05:30am 8.2 5.6 4.4 77 1.7 SSE 7 11 4 6 1029.1 1029.0 0.0
24/05:00am 8.2 5.8 4.4 77 1.6 S 6 9 3 5 1028.9 1028.8 0.0
24/04:30am 8.8 6.4 4.4 74 1.9 SSE 6 9 3 5 1028.7 1028.6 0.0
24/04:00am 8.1 5.5 4.1 76 1.7 SE 7 9 4 5 1028.7 1028.6 0.0
24/03:30am 8.5 5.6 4.5 76 1.8 SE 9 11 5 6 1029.0 1028.9 0.0
24/03:00am 9.0 6.4 4.4 73 2.0 SE 7 11 4 6 1029.4 1029.3 0.0
24/02:30am 9.7 6.8 4.9 72 2.2 SE 9 13 5 7 1029.6 1029.5 0.0
24/02:00am 10.2 7.9 4.8 69 2.4 SE 6 9 3 5 1029.7 1029.6 0.0
24/01:30am 10.7 7.5 5.3 69 2.5 ESE 11 17 6 9 1029.5 1029.4 0.0
24/01:00am 10.9 8.3 5.9 71 2.3 SE 9 15 5 8 1029.6 1029.5 0.0
24/12:30am 11.6 8.3 6.5 71 2.4 SE 13 17 7 9 1029.2 1029.1 0.0
24/12:00am 12.1 8.2 7.2 72 2.3 ESE 17 30 9 16 1028.8 1028.7 0.0
 
Date/Time
WST
Temp
°C
App
Temp
°C
Dew
Point
Rel
Hum
%
Delta-T
°C
Wind Press
QNH
hPa
Press
MSL
hPa
Rain
since 9 am
mm
Dir
 
Spd
km/h
Gust
km/h
Spd
kts
Gust
kts
23/11:30pm 12.4 9.8 7.7 73 2.3 ESE 11 19 6 10 1028.8 1028.7 0.0
23/11:00pm 13.1 9.4 8.0 71 2.5 ESE 17 26 9 14 1028.7 1028.6 0.0
23/10:30pm 13.7 9.1 8.3 70 2.7 SE 22 32 12 17 1028.7 1028.6 0.0
23/10:00pm 13.7 10.7 9.2 74 2.3 SE 15 24 8 13 1028.7 1028.6 0.0
23/09:30pm 14.2 11.2 9.2 72 2.5 SE 15 22 8 12 1028.5 1028.4 0.0
23/09:00pm 14.8 11.0 9.2 69 2.8 SE 19 26 10 14 1028.1 1028.0 0.0
23/08:30pm 14.9 12.0 9.5 70 2.8 SE 15 22 8 12 1027.8 1027.7 0.0
23/08:00pm 15.4 12.2 10.0 70 2.8 SE 17 28 9 15 1027.6 1027.5 0.0
23/07:30pm 15.5 13.0 9.6 68 3.1 SE 13 19 7 10 1027.1 1027.0 0.0
23/07:00pm 15.7 13.8 8.9 64 3.5 SSE 9 13 5 7 1026.7 1026.6 0.0
23/06:30pm 15.7 14.0 8.4 62 3.7 SE 7 9 4 5 1026.4 1026.3 0.0
23/06:00pm 16.8 14.4 8.5 58 4.2 SE 11 19 6 10 1026.1 1026.0 0.0
23/05:30pm 18.5 14.4 8.5 52 5.2 SE 20 30 11 16 1025.9 1025.8 0.0
23/05:00pm 19.0 15.0 9.2 53 5.1 SE 20 26 11 14 1025.5 1025.4 0.0
23/04:30pm 19.9 16.2 10.0 53 5.3 SE 20 32 11 17 1025.4 1025.3 0.0
23/04:00pm 20.2 16.2 10.3 53 5.3 SE 22 33 12 18 1025.4 1025.3 0.0
23/03:30pm 20.7 16.2 10.2 51 5.7 SE 24 41 13 22 1025.4 1025.3 0.0
23/03:00pm 20.6 17.8 11.5 56 5.0 SE 17 32 9 17 1025.1 1025.0 0.0
23/02:30pm 20.9 17.6 11.5 55 5.2 SSE 20 32 11 17 1025.0 1024.9 0.0
23/02:00pm 20.4 16.7 11.6 57 4.8 SE 22 37 12 20 1024.8 1024.7 0.0
23/01:30pm 20.4 15.7 10.8 54 5.2 SE 26 43 14 23 1024.6 1024.5 0.0
23/01:00pm 20.5 16.8 11.4 56 5.0 SE 22 33 12 18 1024.8 1024.7 0.0
23/12:30pm 21.4 18.3 12.3 56 5.1 SE 20 30 11 16 1025.1 1025.0 0.0
23/12:00pm 21.1 17.8 11.7 55 5.2 SE 20 33 11 18 1025.4 1025.3 0.0
23/11:30am 20.1 16.9 11.8 59 4.6 SE 20 33 11 18 1025.7 1025.6 0.0
23/11:00am 19.7 16.6 11.7 60 4.4 SE 19 26 10 14 1025.9 1025.8 0.0
23/10:30am 20.5 17.7 12.7 61 4.4 SE 19 30 10 16 1025.7 1025.6 0.0
23/10:00am 18.7 15.0 12.7 68 3.3 SE 24 35 13 19 1025.7 1025.6 0.0
23/09:30am 17.9 13.9 13.0 73 2.7 SE 26 33 14 18 1025.6 1025.5 0.0
23/09:00am 16.6 14.0 13.7 83 1.6 SE 20 32 11 17 1025.7 1025.6 0.0
23/08:30am 15.7 13.6 13.7 88 1.1 SE 17 30 9 16 1025.5 1025.4 0.0
23/08:00am 14.6 13.0 13.8 95 0.4 SSE 15 24 8 13 1025.3 1025.2 0.0
23/07:30am 13.4 12.3 13.1 98 0.2 SSE 11 15 6 8 1024.8 1024.7 0.0
23/07:00am 12.7 12.1 12.4 98 0.2 SSE 7 11 4 6 1024.2 1024.1 0.0
23/06:30am 12.9 12.0 12.6 98 0.2 SE 9 11 5 6 1023.8 1023.7 0.0
23/06:00am 12.7 12.1 12.4 98 0.2 SE 7 9 4 5 1023.6 1023.5 0.0
23/05:30am 13.0 12.7 12.7 98 0.2 SE 6 9 3 5 1023.4 1023.3 0.0
23/05:00am 13.6 13.3 13.3 98 0.2 SSE 7 11 4 6 1023.2 1023.1 0.0
23/04:30am 13.4 12.7 13.1 98 0.2 SE 9 11 5 6 1022.8 1022.7 0.0
23/04:00am 14.3 13.3 13.5 95 0.4 SE 11 17 6 9 1022.6 1022.5 0.0
23/03:30am 14.6 13.7 13.6 94 0.6 SE 11 17 6 9 1022.4 1022.3 0.0
23/03:00am 14.9 13.6 13.8 93 0.6 SSE 13 17 7 9 1022.2 1022.1 0.0
23/02:30am 14.8 13.9 13.8 94 0.6 SSE 11 17 6 9 1022.2 1022.1 0.0
23/02:00am 14.8 14.3 13.7 93 0.6 SSE 9 13 5 7 1022.1 1022.0 0.0
23/01:30am 15.3 14.0 13.8 91 0.8 SSE 13 19 7 10 1022.0 1021.9 0.0
23/01:00am 15.4 14.1 13.8 90 0.9 SSE 13 20 7 11 1021.8 1021.7 0.0
23/12:30am 15.5 14.5 13.5 88 1.1 SSE 11 15 6 8 1021.6 1021.5 0.0
23/12:00am 15.7 14.7 13.5 87 1.2 SSE 11 13 6 7 1021.8 1021.7 0.0
 
Date/Time
WST
Temp
°C
App
Temp
°C
Dew
Point
Rel
Hum
%
Delta-T
°C
Wind Press
QNH
hPa
Press
MSL
hPa
Rain
since 9 am
mm
Dir
 
Spd
km/h
Gust
km/h
Spd
kts
Gust
kts
22/11:30pm 16.1 14.7 13.4 84 1.5 SSE 13 17 7 9 1021.6 1021.5 0.0
22/11:00pm 16.4 15.4 13.3 82 1.7 SSE 11 19 6 10 1021.7 1021.6 0.0
22/10:30pm 16.7 15.4 13.8 83 1.6 SSE 13 20 7 11 1021.6 1021.5 0.0
22/10:00pm 16.9 15.9 14.5 86 1.4 SSE 13 19 7 10 1021.5 1021.4 0.0
22/09:30pm 17.2 16.3 14.8 86 1.4 SSE 13 19 7 10 1021.2 1021.1 0.0
22/09:00pm 17.5 16.6 14.8 84 1.6 SSE 13 20 7 11 1021.1 1021.0 0.0
22/08:30pm 18.1 17.6 14.8 81 1.9 S 11 15 6 8 1021.0 1020.9 0.0
22/08:00pm 18.7 17.5 14.0 74 2.7 S 13 19 7 10 1020.9 1020.8 0.0
22/07:30pm 18.8 16.9 10.4 58 4.5 S 11 15 6 8 1020.7 1020.6 0.0
22/07:00pm 18.7 17.3 8.7 52 5.2 S 6 7 3 4 1020.5 1020.4 0.0
22/06:30pm 20.3 18.8 8.6 47 6.1 S 6 6 3 3 1020.2 1020.1 0.0
22/06:00pm 21.1 19.6 8.4 44 6.6 S 6 9 3 5 1019.9 1019.8 0.0
22/05:30pm 23.4 21.6 7.9 37 8.2 SSE 7 11 4 6 1019.6 1019.5 0.0
22/05:00pm 24.5 22.5 7.2 33 9.0 SE 7 11 4 6 1019.4 1019.3 0.0
22/04:30pm 25.3 22.9 7.0 31 9.6 SE 9 15 5 8 1019.3 1019.2 0.0
22/04:00pm 25.8 23.4 6.9 30 9.9 SE 9 15 5 8 1019.2 1019.1 0.0
22/03:30pm 25.5 24.4 10.5 39 8.4 W 7 11 4 6 1019.2 1019.1 0.0
22/03:00pm 25.6 23.8 9.4 36 8.8 W 9 13 5 7 1019.2 1019.1 0.0
22/02:30pm 25.8 23.9 9.2 35 9.1 W 9 13 5 7 1019.4 1019.3 0.0
22/02:00pm 26.0 25.0 8.9 34 9.3 WSW 4 7 2 4 1019.3 1019.2 0.0
22/01:30pm 26.2 24.5 7.7 31 9.9 SE 6 13 3 7 1019.6 1019.5 0.0
22/01:00pm 25.4 23.4 8.8 35 9.0 SE 9 15 5 8 1019.8 1019.7 0.0
22/12:30pm 25.1 23.9 10.2 39 8.2 SE 7 13 4 7 1020.3 1020.2 0.0

Other Formats:

Comma delimited format used in spreadsheet applications
http://www.bom.gov.au/fwo/IDW60801/IDW60801.94604.axf

JavaScript Object Notation format (JSON) in row-major order
http://www.bom.gov.au/fwo/IDW60801/IDW60801.94604.json